Time;durP1;ratioP1;P1;durP2;ratioP2;P2;SDS_P1;SDS_P2;PMS_P1;PMS_P2;Temp;Humidity;BMP_temperature;BMP_pressure;BME280_temperature;BME280_humidity;BME280_pressure;Samples;Min_cycle;Max_cycle;Signal;HPM_P1;HPM_P2
2024/02/04 00:02:07;;;;;;;9.40;3.65;;;;;;;8.72;100.00;101724.63;6275086;28;20053;-76
2024/02/04 00:05:09;;;;;;;11.82;4.20;;;;;;;8.63;100.00;101723.16;6275124;28;20081;-74
2024/02/04 00:08:12;;;;;;;12.45;4.00;;;;;;;8.64;100.00;101723.09;6274678;28;20052;-77
2024/02/04 00:11:14;;;;;;;8.05;3.90;;;;;;;8.49;100.00;101730.53;6272916;28;20053;-77
2024/02/04 00:14:15;;;;;;;10.57;3.47;;;;;;;8.46;100.00;101731.50;6270244;28;20041;-76
2024/02/04 00:17:16;;;;;;;15.98;4.72;;;;;;;8.60;100.00;101711.00;6274878;28;20460;-77
2024/02/04 00:20:19;;;;;;;16.15;4.63;;;;;;;8.62;100.00;101706.56;6276346;28;20049;-77
2024/02/04 00:23:21;;;;;;;10.23;3.40;;;;;;;8.59;100.00;101703.19;6280211;28;20053;-77
2024/02/04 00:26:22;;;;;;;24.80;4.40;;;;;;;8.59;100.00;101695.34;6277427;28;20045;-77
2024/02/04 00:29:24;;;;;;;12.10;4.03;;;;;;;8.46;100.00;101686.97;6277484;28;20041;-76
2024/02/04 00:32:25;;;;;;;12.77;3.78;;;;;;;8.61;100.00;101680.41;6279942;28;20056;-77
2024/02/04 00:35:28;;;;;;;9.98;3.95;;;;;;;8.57;100.00;101677.03;6279621;28;20197;-76
2024/02/04 00:38:29;;;;;;;12.70;4.10;;;;;;;8.48;100.00;101686.91;6279617;28;20056;-76
2024/02/04 00:41:31;;;;;;;15.68;4.13;;;;;;;8.44;100.00;101690.53;6279912;28;20064;-77
2024/02/04 00:44:32;;;;;;;17.05;5.15;;;;;;;8.43;100.00;101687.06;6279804;28;20425;-77
2024/02/04 00:47:33;;;;;;;11.40;3.90;;;;;;;8.53;100.00;101691.13;6279357;28;20056;-74
2024/02/04 00:50:36;;;;;;;12.48;4.00;;;;;;;8.52;100.00;101686.78;6279551;28;20326;-77
2024/02/04 00:53:37;;;;;;;7.72;3.75;;;;;;;8.10;100.00;101681.84;6279153;28;20045;-77
2024/02/04 00:56:39;;;;;;;10.98;4.72;;;;;;;8.25;100.00;101680.56;6278989;28;20348;-75
2024/02/04 00:59:40;;;;;;;15.57;4.43;;;;;;;8.37;100.00;101655.81;6279469;28;20142;-78
2024/02/04 01:02:41;;;;;;;12.75;4.75;;;;;;;8.48;100.00;101661.59;6279199;28;20361;-77
2024/02/04 01:05:44;;;;;;;8.00;4.28;;;;;;;8.36;100.00;101659.31;6279115;28;20045;-74
2024/02/04 01:08:45;;;;;;;13.35;4.85;;;;;;;8.46;100.00;101668.63;6278674;28;20357;-77
2024/02/04 01:11:47;;;;;;;9.73;4.28;;;;;;;8.43;100.00;101660.88;6279451;28;20049;-77
2024/02/04 01:14:48;;;;;;;17.02;4.57;;;;;;;8.44;100.00;101659.09;6278921;28;20051;-78
2024/02/04 01:17:49;;;;;;;15.77;5.35;;;;;;;8.44;100.00;101666.94;6278533;28;20361;-77
2024/02/04 01:20:52;;;;;;;13.05;4.63;;;;;;;8.42;100.00;101661.78;6278898;28;20057;-77
2024/02/04 01:23:53;;;;;;;13.27;5.47;;;;;;;8.47;100.00;101665.09;6278819;28;20056;-78
2024/02/04 01:26:55;;;;;;;18.23;5.38;;;;;;;8.10;100.00;101666.16;6277678;28;20056;-74
2024/02/04 01:29:57;;;;;;;20.60;6.22;;;;;;;8.05;100.00;101672.41;6278275;28;20053;-77
2024/02/04 01:32:58;;;;;;;18.25;4.90;;;;;;;8.02;100.00;101680.34;6271557;28;20110;-77
2024/02/04 01:36:01;;;;;;;10.57;5.07;;;;;;;7.86;100.00;101674.69;6268524;28;20056;-75
2024/02/04 01:39:02;;;;;;;19.75;5.28;;;;;;;7.95;100.00;101684.91;6273100;28;20053;-77
2024/02/04 01:42:05;;;;;;;11.05;4.55;;;;;;;7.86;100.00;101685.16;6278253;28;20049;-77
2024/02/04 01:45:07;;;;;;;11.68;5.10;;;;;;;8.01;100.00;101689.13;6278280;28;20040;-77
2024/02/04 01:48:08;;;;;;;12.95;4.53;;;;;;;8.07;100.00;101674.06;6277684;28;20053;-77
2024/02/04 01:51:13;;;;;;;12.75;5.40;;;;;;;8.02;100.00;101665.50;6277463;28;20060;-77
2024/02/04 01:54:15;;;;;;;20.25;6.65;;;;;;;8.20;100.00;101658.03;6272825;28;20037;-78
2024/02/04 01:57:17;;;;;;;12.80;4.93;;;;;;;8.29;100.00;101645.53;6277967;28;20052;-77
2024/02/04 02:00:19;;;;;;;19.65;6.20;;;;;;;8.29;100.00;101635.06;6273011;28;20045;-77
2024/02/04 02:03:21;;;;;;;21.83;7.10;;;;;;;8.29;100.00;101637.66;6310515;23;20143;-77
2024/02/04 02:06:25;;;;;;;15.02;6.72;;;;;;;8.18;100.00;101636.28;6298270;28;20067;-78
2024/02/04 02:09:26;;;;;;;17.75;6.75;;;;;;;8.39;100.00;101609.47;6293630;28;20561;-75
2024/02/04 02:12:33;;;;;;;19.08;6.82;;;;;;;8.33;100.00;101628.81;6309967;28;20044;-78
2024/02/04 02:15:39;;;;;;;15.20;6.80;;;;;;;8.38;100.00;101628.72;6320595;28;20052;-78
2024/02/04 02:18:45;;;;;;;17.83;7.15;;;;;;;8.39;100.00;101625.19;6317144;28;20332;-78
2024/02/04 02:21:57;;;;;;;19.35;6.63;;;;;;;8.38;100.00;101632.19;6327600;28;20044;-78
2024/02/04 02:25:00;;;;;;;17.77;6.28;;;;;;;8.31;100.00;101621.91;6310386;28;20052;-78
2024/02/04 02:28:01;;;;;;;19.33;6.93;;;;;;;8.27;100.00;101626.41;6316277;28;20048;-78
2024/02/04 02:31:03;;;;;;;21.48;6.70;;;;;;;8.28;100.00;101627.25;6320642;28;20048;-78
2024/02/04 02:34:04;;;;;;;26.55;7.10;;;;;;;8.33;100.00;101631.44;6317777;28;20050;-78
2024/02/04 02:37:21;;;;;;;14.20;6.40;;;;;;;8.50;100.00;101617.88;6319706;28;20455;-78
2024/02/04 02:40:30;;;;;;;13.48;6.03;;;;;;;8.42;100.00;101624.25;6316947;28;20104;-79
2024/02/04 02:43:34;;;;;;;23.45;5.70;;;;;;;8.45;100.00;101604.06;6318701;28;20059;-78
2024/02/04 02:46:37;;;;;;;20.80;6.38;;;;;;;8.53;100.00;101612.53;6319593;28;20045;-78
2024/02/04 02:49:38;;;;;;;16.90;6.22;;;;;;;8.59;100.00;101614.13;6320867;28;20466;-79
2024/02/04 02:52:40;;;;;;;17.33;4.90;;;;;;;8.64;100.00;101620.91;6326022;28;20126;-76
2024/02/04 02:55:42;;;;;;;19.10;6.47;;;;;;;8.63;100.00;101608.72;6321045;28;20549;-74
2024/02/04 02:58:44;;;;;;;13.70;5.32;;;;;;;8.55;100.00;101597.63;6325588;28;20060;-71
2024/02/04 03:01:45;;;;;;;16.48;5.00;;;;;;;8.59;100.00;101606.25;6325639;28;20351;-74
2024/02/04 03:04:46;;;;;;;16.45;4.55;;;;;;;8.65;100.00;101598.19;6319250;28;20047;-74
2024/02/04 03:07:47;;;;;;;8.15;3.97;;;;;;;8.59;100.00;101612.34;6324742;28;20047;-74
2024/02/04 03:10:50;;;;;;;13.07;3.78;;;;;;;8.51;100.00;101606.50;6325400;28;20450;-74
2024/02/04 03:13:51;;;;;;;12.75;3.90;;;;;;;8.37;100.00;101604.28;6325956;28;20051;-74
2024/02/04 03:16:53;;;;;;;10.02;3.70;;;;;;;8.33;100.00;101596.53;6325287;28;20066;-74
2024/02/04 03:19:54;;;;;;;17.58;4.38;;;;;;;8.39;100.00;101583.28;6325460;28;20055;-71
2024/02/04 03:22:56;;;;;;;11.57;4.20;;;;;;;8.38;100.00;101585.03;6325179;28;20081;-74
2024/02/04 03:25:59;;;;;;;12.75;3.13;;;;;;;8.43;100.00;101584.06;6323035;28;20044;-74
2024/02/04 03:29:00;;;;;;;13.52;3.45;;;;;;;8.17;100.00;101593.50;6322032;28;20055;-74
2024/02/04 03:32:02;;;;;;;9.77;3.08;;;;;;;8.22;100.00;101589.03;6317215;28;20048;-74
2024/02/04 03:35:04;;;;;;;9.65;2.30;;;;;;;8.38;100.00;101594.66;6324769;28;20044;-74
2024/02/04 03:38:06;;;;;;;12.45;3.03;;;;;;;8.33;100.00;101594.78;6324337;28;20234;-75
2024/02/04 03:41:08;;;;;;;9.68;2.92;;;;;;;8.30;100.00;101581.75;6319822;28;20052;-76
2024/02/04 03:44:10;;;;;;;8.40;3.08;;;;;;;8.12;100.00;101580.56;6319067;28;20043;-77
2024/02/04 03:47:11;;;;;;;13.23;2.92;;;;;;;8.17;100.00;101572.56;6324540;28;20050;-78
2024/02/04 03:50:12;;;;;;;8.73;2.90;;;;;;;8.14;100.00;101577.91;6324914;28;20043;-78
2024/02/04 03:53:14;;;;;;;9.70;2.80;;;;;;;8.13;100.00;101591.91;6322657;28;20818;-78
2024/02/04 03:56:16;;;;;;;12.15;3.17;;;;;;;8.12;100.00;101575.31;6318393;28;20044;-78
2024/02/04 03:59:18;;;;;;;6.50;2.45;;;;;;;8.06;100.00;101562.41;6322046;28;20055;-78
2024/02/04 04:02:19;;;;;;;4.70;2.53;;;;;;;8.03;100.00;101565.13;6319489;28;20470;-77
2024/02/04 04:05:20;;;;;;;9.65;3.13;;;;;;;8.26;100.00;101561.81;6321732;28;20051;-76
2024/02/04 04:08:22;;;;;;;12.98;2.50;;;;;;;8.28;100.00;101570.50;6317719;28;20048;-76
2024/02/04 04:11:24;;;;;;;8.60;2.10;;;;;;;8.29;100.00;101566.09;6321722;28;20048;-77
2024/02/04 04:14:26;;;;;;;10.98;3.00;;;;;;;8.28;100.00;101572.25;6322916;28;20370;-76
2024/02/04 04:17:27;;;;;;;6.72;2.50;;;;;;;8.34;100.00;101574.69;6318854;28;20040;-78
2024/02/04 04:20:28;;;;;;;8.20;2.13;;;;;;;8.24;100.00;101566.25;6324642;28;20051;-77
2024/02/04 04:23:30;;;;;;;5.28;2.22;;;;;;;8.22;100.00;101567.19;6324201;28;20052;-77
2024/02/04 04:26:33;;;;;;;11.40;2.75;;;;;;;8.19;100.00;101583.88;6320754;28;20041;-77
2024/02/04 04:29:34;;;;;;;8.35;1.40;;;;;;;8.27;100.00;101586.25;6321700;28;20450;-77
2024/02/04 04:32:36;;;;;;;10.27;1.92;;;;;;;8.14;100.00;101584.00;6325101;28;20055;-76
2024/02/04 04:35:38;;;;;;;5.07;1.85;;;;;;;8.19;100.00;101594.34;6324891;28;20040;-77
2024/02/04 04:38:39;;;;;;;3.78;1.60;;;;;;;8.22;100.00;101606.47;6324635;28;20228;-76
2024/02/04 04:41:45;;;;;;;14.27;3.67;;;;;;;8.18;100.00;101595.25;6324731;28;20055;-76
2024/02/04 04:44:46;;;;;;;8.43;1.88;;;;;;;8.24;100.00;101589.81;6324765;28;20048;-77
2024/02/04 04:47:47;;;;;;;5.43;1.80;;;;;;;8.29;100.00;101581.81;6324385;28;20055;-76
2024/02/04 04:50:49;;;;;;;5.80;2.40;;;;;;;8.30;100.00;101594.00;6324980;28;20375;-76
2024/02/04 04:53:50;;;;;;;5.90;1.27;;;;;;;8.32;100.00;101602.69;6322574;28;20051;-76
2024/02/04 04:56:53;;;;;;;7.22;1.80;;;;;;;8.21;100.00;101589.03;6299718;28;20060;-79
2024/02/04 04:59:54;;;;;;;5.28;1.55;;;;;;;8.19;100.00;101583.00;6299666;28;20052;-76
2024/02/04 05:02:55;;;;;;;4.57;1.30;;;;;;;8.09;100.00;101592.91;6313362;28;20440;-77
2024/02/04 05:05:57;;;;;;;6.53;1.67;;;;;;;8.24;100.00;101588.97;6325792;28;20047;-77
2024/02/04 05:08:59;;;;;;;9.40;2.17;;;;;;;8.17;100.00;101588.28;6329062;28;20055;-78
2024/02/04 05:12:03;;;;;;;3.45;1.75;;;;;;;8.21;100.00;101594.28;6329101;28;20347;-78
2024/02/04 05:15:05;;;;;;;5.32;1.92;;;;;;;8.34;100.00;101590.41;6328888;28;20057;-76
2024/02/04 05:18:06;;;;;;;10.48;2.08;;;;;;;8.27;100.00;101575.78;6328827;28;20056;-76
2024/02/04 05:21:08;;;;;;;6.07;1.30;;;;;;;8.26;100.00;101559.19;6329005;28;20055;-76
2024/02/04 05:24:09;;;;;;;16.77;1.65;;;;;;;8.31;100.00;101575.66;6328769;28;20325;-76
2024/02/04 05:27:12;;;;;;;4.80;1.60;;;;;;;8.24;100.00;101594.19;6328417;28;20055;-77
2024/02/04 05:30:15;;;;;;;5.45;1.20;;;;;;;8.39;100.00;101570.19;6329028;28;20067;-76
2024/02/04 05:33:16;;;;;;;13.38;1.73;;;;;;;7.99;100.00;101592.28;6326701;28;20127;-78
2024/02/04 05:36:18;;;;;;;9.07;1.50;;;;;;;8.06;100.00;101579.91;6327776;28;20432;-76
2024/02/04 05:39:19;;;;;;;4.40;1.30;;;;;;;7.87;100.00;101571.72;6325004;28;20044;-76
2024/02/04 05:42:22;;;;;;;5.38;1.77;;;;;;;7.84;100.00;101572.66;6320181;28;20052;-77
2024/02/04 05:45:23;;;;;;;4.85;1.45;;;;;;;8.00;100.00;101577.47;6323982;28;20040;-76
2024/02/04 05:48:24;;;;;;;7.70;1.65;;;;;;;8.00;100.00;101570.47;6323616;28;20440;-77
2024/02/04 05:51:26;;;;;;;4.95;1.35;;;;;;;7.92;100.00;101551.50;6324401;28;20048;-77
2024/02/04 05:54:27;;;;;;;12.13;1.33;;;;;;;7.99;100.00;101555.63;6322873;28;20051;-76
2024/02/04 05:57:30;;;;;;;10.00;1.10;;;;;;;8.00;100.00;101560.00;6314507;28;20044;-77
2024/02/04 06:00:31;;;;;;;5.00;0.95;;;;;;;7.91;100.00;101543.72;6312588;28;20329;-77
2024/02/04 06:03:32;;;;;;;9.75;1.17;;;;;;;7.95;100.00;101546.19;6316249;28;20048;-76
2024/02/04 06:06:34;;;;;;;4.45;1.25;;;;;;;7.97;100.00;101531.28;6318931;28;20044;-76
2024/02/04 06:09:36;;;;;;;7.43;1.40;;;;;;;8.06;100.00;101523.16;6327978;28;20052;-76
2024/02/04 06:12:40;;;;;;;7.53;1.90;;;;;;;7.99;100.00;101534.69;6327765;28;20048;-76
2024/02/04 06:15:42;;;;;;;5.35;2.92;;;;;;;7.98;100.00;101532.13;6318923;28;20351;-77
2024/02/04 06:18:43;;;;;;;5.53;2.78;;;;;;;8.13;100.00;101524.69;6326229;28;20060;-76
2024/02/04 06:21:44;;;;;;;13.20;3.63;;;;;;;8.05;100.00;101516.22;6319233;28;20040;-77
2024/02/04 06:24:46;;;;;;;15.02;4.18;;;;;;;8.08;100.00;101512.63;6319924;28;20459;-77
2024/02/04 06:27:48;;;;;;;10.07;3.67;;;;;;;8.18;100.00;101506.22;6325816;28;20044;-76
2024/02/04 06:30:50;;;;;;;9.63;3.13;;;;;;;8.13;100.00;101497.66;6327593;28;20052;-77
2024/02/04 06:33:51;;;;;;;14.15;2.65;;;;;;;8.22;100.00;101514.81;6327057;28;20056;-77
2024/02/04 06:36:52;;;;;;;11.57;3.60;;;;;;;8.16;100.00;101520.25;6326831;28;20419;-77
2024/02/04 06:39:54;;;;;;;7.80;2.70;;;;;;;8.13;100.00;101516.84;6327096;28;20056;-76
2024/02/04 06:42:56;;;;;;;8.35;2.03;;;;;;;8.10;100.00;101524.78;6327268;28;20052;-77
2024/02/04 06:45:58;;;;;;;3.05;1.85;;;;;;;7.99;100.00;101507.69;6327181;28;20075;-76
2024/02/04 06:48:59;;;;;;;6.75;1.85;;;;;;;8.04;100.00;101493.56;6326762;28;20048;-77
2024/02/04 06:52:00;;;;;;;4.25;1.73;;;;;;;8.09;100.00;101491.66;6326945;28;20051;-76
2024/02/04 06:55:02;;;;;;;2.95;1.35;;;;;;;8.09;100.00;101499.50;6326289;28;20055;-77
2024/02/04 06:58:04;;;;;;;7.88;2.15;;;;;;;8.14;100.00;101487.13;6326351;28;20052;-77
2024/02/04 07:01:06;;;;;;;5.22;1.38;;;;;;;8.00;100.00;101512.03;6326796;28;20048;-77
2024/02/04 07:04:07;;;;;;;6.07;1.10;;;;;;;8.14;100.00;101494.13;6326392;28;20189;-77
2024/02/04 07:07:08;;;;;;;6.70;0.98;;;;;;;8.18;100.00;101497.53;6325781;28;20048;-76
2024/02/04 07:10:10;;;;;;;5.43;1.05;;;;;;;8.20;100.00;101483.47;6318360;28;20055;-76
2024/02/04 07:13:12;;;;;;;8.98;1.20;;;;;;;8.09;100.00;101503.91;6326158;28;20051;-77
2024/02/04 07:16:14;;;;;;;2.22;0.90;;;;;;;8.32;100.00;101484.84;6326444;28;20051;-76
2024/02/04 07:19:15;;;;;;;7.72;1.23;;;;;;;8.24;100.00;101497.31;6325736;28;20052;-76
2024/02/04 07:22:16;;;;;;;8.40;1.17;;;;;;;8.20;100.00;101508.78;6326396;28;20059;-77
2024/02/04 07:25:18;;;;;;;9.45;1.13;;;;;;;8.23;100.00;101501.69;6326089;28;20352;-77
2024/02/04 07:28:20;;;;;;;6.07;0.98;;;;;;;8.13;100.00;101482.81;6325634;28;20048;-76
2024/02/04 07:31:22;;;;;;;12.55;1.30;;;;;;;8.22;100.00;101499.13;6326050;28;20079;-79
2024/02/04 07:34:24;;;;;;;8.45;1.90;;;;;;;8.07;100.00;101505.69;6325180;28;20150;-78
2024/02/04 07:37:25;;;;;;;7.05;1.20;;;;;;;8.22;100.00;101491.25;6325635;28;20087;-76
2024/02/04 07:40:27;;;;;;;3.72;1.00;;;;;;;8.07;100.00;101471.66;6324756;28;20348;-76
2024/02/04 07:43:30;;;;;;;3.60;1.33;;;;;;;8.14;100.00;101475.81;6324089;28;20384;-76
2024/02/04 07:46:31;;;;;;;1.85;1.00;;;;;;;8.06;100.00;101465.56;6317115;28;20044;-77
2024/02/04 07:49:32;;;;;;;10.90;1.50;;;;;;;8.08;100.00;101466.41;6322193;28;20068;-77
2024/02/04 07:52:34;;;;;;;5.55;1.08;;;;;;;8.13;100.00;101471.50;6319769;28;20052;-77
2024/02/04 07:55:35;;;;;;;10.07;1.30;;;;;;;8.27;100.00;101485.00;6323308;28;20037;-77
2024/02/04 07:58:38;;;;;;;8.48;1.75;;;;;;;8.22;100.00;101471.19;6320820;28;20060;-76
2024/02/04 08:01:39;;;;;;;3.90;1.17;;;;;;;8.12;100.00;101480.22;6315838;28;20349;-76
2024/02/04 08:04:41;;;;;;;9.50;1.30;;;;;;;8.13;100.00;101477.56;6288693;23;20049;-75
2024/02/04 08:07:42;;;;;;;5.30;0.93;;;;;;;8.23;100.00;101464.19;6269939;28;20045;-77
2024/02/04 08:10:44;;;;;;;8.27;1.33;;;;;;;8.25;100.00;101465.84;6270835;28;20060;-77
2024/02/04 08:13:46;;;;;;;3.85;1.05;;;;;;;8.13;100.00;101474.09;6262792;28;20365;-76
2024/02/04 08:16:48;;;;;;;6.22;1.35;;;;;;;8.21;100.00;101487.78;6269883;28;20048;-76
2024/02/04 08:19:49;;;;;;;5.13;0.90;;;;;;;8.22;100.00;101472.94;6267926;28;20429;-77
2024/02/04 08:22:53;;;;;;;5.93;1.08;;;;;;;8.14;100.00;101479.28;6271648;28;20060;-76
2024/02/04 08:25:54;;;;;;;6.03;0.90;;;;;;;8.29;100.00;101477.94;6255507;28;20045;-77
2024/02/04 08:28:57;;;;;;;8.50;1.17;;;;;;;8.36;100.00;101491.69;6274323;28;20352;-76
2024/02/04 08:31:58;;;;;;;5.28;1.20;;;;;;;8.29;100.00;101498.03;6269906;28;20045;-77
2024/02/04 08:34:59;;;;;;;14.05;1.85;;;;;;;8.32;100.00;101493.56;6258246;28;20046;-77
2024/02/04 08:38:01;;;;;;;7.93;1.08;;;;;;;8.28;100.00;101499.78;6252326;28;20056;-76
2024/02/04 08:41:02;;;;;;;4.65;1.35;;;;;;;8.34;100.00;101488.25;6259455;28;20053;-76
2024/02/04 08:44:05;;;;;;;6.07;1.42;;;;;;;8.43;100.00;101489.75;6270926;28;20049;-76
2024/02/04 08:47:10;;;;;;;10.10;1.88;;;;;;;8.39;100.00;101496.84;6262256;28;20061;-76
2024/02/04 08:50:12;;;;;;;4.75;1.20;;;;;;;8.52;100.00;101492.94;6272956;28;20128;-74
2024/02/04 08:53:14;;;;;;;8.13;1.27;;;;;;;8.50;100.00;101496.53;6263818;28;20557;-76
2024/02/04 08:56:15;;;;;;;12.13;1.45;;;;;;;8.44;100.00;101492.31;6273142;28;20041;-75
2024/02/04 08:59:17;;;;;;;5.53;1.50;;;;;;;8.36;100.00;101484.72;6270975;28;20083;-73
2024/02/04 09:02:19;;;;;;;10.68;1.10;;;;;;;8.51;100.00;101490.38;6264147;28;20051;-77
2024/02/04 09:05:21;;;;;;;11.45;1.58;;;;;;;8.58;100.00;101489.25;6303384;28;20184;-77
2024/02/04 09:08:22;;;;;;;9.52;1.73;;;;;;;8.50;100.00;101493.91;6292284;28;20055;-76
2024/02/04 09:11:24;;;;;;;3.67;0.95;;;;;;;8.60;100.00;101485.69;6295282;28;20052;-76
2024/02/04 09:14:27;;;;;;;12.07;0.93;;;;;;;8.57;100.00;101495.41;6295488;28;20464;-75
2024/02/04 09:17:28;;;;;;;3.95;1.13;;;;;;;8.51;100.00;101479.91;6299446;28;20044;-74
2024/02/04 09:20:29;;;;;;;10.05;2.17;;;;;;;8.55;100.00;101465.78;6292078;28;20055;-77
2024/02/04 09:23:31;;;;;;;6.53;1.13;;;;;;;8.66;100.00;101494.25;6303265;28;20053;-74
2024/02/04 09:26:32;;;;;;;1.92;0.90;;;;;;;8.64;100.00;101489.91;6286644;28;20048;-76
2024/02/04 09:29:35;;;;;;;4.53;0.80;;;;;;;8.63;100.00;101493.44;6303344;28;20044;-76
2024/02/04 09:32:36;;;;;;;14.93;1.80;;;;;;;8.69;100.00;101499.38;6286183;28;20045;-75
2024/02/04 09:35:38;;;;;;;9.73;1.13;;;;;;;8.60;100.00;101497.94;6278469;28;20052;-76
2024/02/04 09:38:39;;;;;;;6.38;1.23;;;;;;;8.56;100.00;101505.03;6297684;28;20049;-75
2024/02/04 09:41:41;;;;;;;4.03;1.42;;;;;;;8.77;100.00;101513.94;6297524;28;20045;-75
2024/02/04 09:44:44;;;;;;;12.07;1.25;;;;;;;8.73;100.00;101488.75;6292241;28;20051;-75
2024/02/04 09:47:46;;;;;;;6.93;1.08;;;;;;;8.76;100.00;101493.00;6287850;28;20063;-75
2024/02/04 09:50:48;;;;;;;2.75;0.88;;;;;;;8.66;100.00;101495.09;6301482;28;20445;-75
2024/02/04 09:53:53;;;;;;;4.28;1.30;;;;;;;8.69;100.00;101508.09;6299959;28;20459;-75
2024/02/04 09:56:54;;;;;;;8.55;1.20;;;;;;;8.66;100.00;101518.66;6289246;28;20052;-75
2024/02/04 09:59:57;;;;;;;6.40;1.60;;;;;;;8.62;100.00;101509.19;6294695;28;20044;-73
2024/02/04 10:02:59;;;;;;;5.38;1.05;;;;;;;8.37;100.00;101499.53;6284650;28;20151;-73
2024/02/04 10:06:00;;;;;;;4.78;0.90;;;;;;;8.55;100.00;101497.22;6283729;28;20056;-74
2024/02/04 10:09:02;;;;;;;3.70;1.10;;;;;;;8.64;100.00;101489.91;6298962;28;20041;-74
2024/02/04 10:12:04;;;;;;;5.40;1.20;;;;;;;8.75;100.00;101473.81;6302378;28;20056;-75
2024/02/04 10:15:08;;;;;;;2.75;0.90;;;;;;;8.96;100.00;101481.88;6302147;28;20048;-75
2024/02/04 10:18:09;;;;;;;3.17;1.17;;;;;;;8.90;100.00;101482.91;6287421;28;20059;-75
2024/02/04 10:21:19;;;;;;;14.48;4.20;;;;;;;8.77;100.00;101479.03;6296858;28;20048;-74
2024/02/04 10:24:22;;;;;;;14.70;3.20;;;;;;;8.89;100.00;101471.56;6301755;28;20048;-76
2024/02/04 10:27:23;;;;;;;8.80;1.48;;;;;;;8.92;100.00;101470.63;6301778;28;20055;-74
2024/02/04 10:30:26;;;;;;;8.15;0.88;;;;;;;9.01;100.00;101458.97;6298251;28;20364;-74
2024/02/04 10:33:30;;;;;;;13.38;1.95;;;;;;;9.10;100.00;101469.97;6299032;28;20059;-74
2024/02/04 10:36:32;;;;;;;9.82;1.52;;;;;;;9.24;100.00;101468.63;6301745;28;20040;-75
2024/02/04 10:39:34;;;;;;;8.68;1.25;;;;;;;9.21;100.00;101468.72;6302217;28;20174;-74
2024/02/04 10:42:36;;;;;;;7.38;1.33;;;;;;;9.34;100.00;101462.97;6293876;28;20068;-74
2024/02/04 10:45:43;;;;;;;9.82;1.25;;;;;;;9.31;100.00;101470.97;6298664;28;20101;-76
2024/02/04 10:48:49;;;;;;;9.57;1.20;;;;;;;9.26;100.00;101459.78;6301397;28;20053;-74
2024/02/04 10:51:52;;;;;;;6.30;1.40;;;;;;;9.45;100.00;101469.59;6301993;28;20052;-74
2024/02/04 10:54:54;;;;;;;5.78;1.58;;;;;;;9.51;100.00;101464.13;6301106;28;20360;-75
2024/02/04 10:57:56;;;;;;;8.07;1.38;;;;;;;9.61;100.00;101450.59;6300986;28;20044;-74
2024/02/04 11:00:59;;;;;;;9.93;1.85;;;;;;;9.49;100.00;101458.06;6298445;28;20092;-76
2024/02/04 11:04:03;;;;;;;7.38;1.60;;;;;;;9.57;100.00;101463.91;6283794;28;20079;-74
2024/02/04 11:07:06;;;;;;;12.30;1.70;;;;;;;9.77;100.00;101437.75;6276311;28;20045;-76
2024/02/04 11:10:08;;;;;;;6.25;1.67;;;;;;;9.55;100.00;101423.75;6276483;28;20263;-77
2024/02/04 11:13:11;;;;;;;9.23;1.30;;;;;;;9.52;100.00;101442.22;6294193;28;20651;-77
2024/02/04 11:16:28;;;;;;;12.27;1.63;;;;;;;9.62;100.00;101440.97;6301052;28;20429;-78
2024/02/04 11:19:41;;;;;;;11.32;2.08;;;;;;;9.45;100.00;101440.72;6300883;28;20048;-75
2024/02/04 11:23:18;;;;;;;9.27;2.13;;;;;;;9.60;100.00;101454.16;6300966;28;20361;-76
2024/02/04 11:26:20;;;;;;;8.30;1.20;;;;;;;9.74;100.00;101437.03;6300883;28;20455;-76
2024/02/04 11:29:23;;;;;;;10.38;1.98;;;;;;;9.63;100.00;101440.06;6300312;28;20372;-76
2024/02/04 11:32:26;;;;;;;8.77;1.75;;;;;;;9.64;100.00;101428.66;6299824;28;20052;-78
2024/02/04 11:35:27;;;;;;;5.10;1.48;;;;;;;9.71;100.00;101424.84;6292124;28;20059;-76
2024/02/04 11:38:33;;;;;;;14.07;1.80;;;;;;;9.79;100.00;101419.31;6283343;28;20325;-77
2024/02/04 11:41:45;;;;;;;8.07;1.73;;;;;;;9.71;100.00;101409.09;6300428;28;20166;-77
2024/02/04 11:44:47;;;;;;;2.83;1.30;;;;;;;9.53;100.00;101415.06;6297337;28;20049;-78
2024/02/04 11:48:01;;;;;;;12.70;1.65;;;;;;;9.82;100.00;101414.81;6293047;28;20056;-78
2024/02/04 11:51:02;;;;;;;6.57;1.30;;;;;;;9.80;100.00;101423.66;6288372;28;20063;-78
2024/02/04 11:54:05;;;;;;;4.80;1.17;;;;;;;9.94;100.00;101423.09;6287387;28;20048;-77
2024/02/04 11:57:06;;;;;;;7.80;1.45;;;;;;;9.93;100.00;101426.66;6293322;28;20055;-75
2024/02/04 12:00:10;;;;;;;7.05;1.10;;;;;;;9.95;100.00;101430.06;6291596;28;20044;-76
2024/02/04 12:03:13;;;;;;;17.30;1.30;;;;;;;9.83;100.00;101418.28;6299703;28;20048;-76
2024/02/04 12:06:16;;;;;;;4.78;1.40;;;;;;;9.88;100.00;101417.19;6287261;28;20072;-77
2024/02/04 12:09:19;;;;;;;11.10;1.65;;;;;;;9.83;100.00;101423.53;6285064;28;20049;-79
2024/02/04 12:12:21;;;;;;;11.35;1.77;;;;;;;9.91;100.00;101403.94;6287528;28;20182;-77
2024/02/04 12:15:22;;;;;;;9.05;1.58;;;;;;;9.88;100.00;101411.06;6293747;28;20432;-77
2024/02/04 12:18:25;;;;;;;10.93;2.08;;;;;;;9.93;100.00;101403.88;6277994;28;20353;-77
2024/02/04 12:21:27;;;;;;;4.50;1.20;;;;;;;9.80;100.00;101429.75;6282398;28;20056;-77
2024/02/04 12:24:28;;;;;;;10.70;1.48;;;;;;;9.76;100.00;101395.81;6281069;28;20375;-77
2024/02/04 12:27:30;;;;;;;6.18;1.50;;;;;;;9.81;100.00;101402.59;6294876;28;20043;-77
2024/02/04 12:30:33;;;;;;;6.85;1.45;;;;;;;9.76;100.00;101408.94;6299907;28;20056;-77
2024/02/04 12:33:37;;;;;;;2.08;0.93;;;;;;;9.75;100.00;101396.72;6301443;28;20055;-77
2024/02/04 12:36:39;;;;;;;3.00;0.77;;;;;;;9.87;100.00;101399.72;6296185;28;20049;-76
2024/02/04 12:39:40;;;;;;;3.78;1.05;;;;;;;9.94;100.00;101395.06;6299795;28;20060;-76
2024/02/04 12:42:42;;;;;;;11.20;2.25;;;;;;;9.76;100.00;101386.16;6299529;28;20455;-77
2024/02/04 12:45:43;;;;;;;8.75;1.33;;;;;;;9.77;100.00;101400.16;6290968;28;20044;-78
2024/02/04 12:48:46;;;;;;;4.60;0.98;;;;;;;9.66;100.00;101395.31;6300239;28;20424;-75
2024/02/04 12:51:47;;;;;;;8.85;1.25;;;;;;;9.77;100.00;101397.53;6291274;28;20053;-75
2024/02/04 12:54:50;;;;;;;12.13;1.40;;;;;;;9.74;100.00;101381.91;6299288;28;20352;-76
2024/02/04 12:57:52;;;;;;;0.88;0.65;;;;;;;9.94;100.00;101386.34;6299539;28;20048;-76
2024/02/04 13:01:01;;;;;;;3.13;0.90;;;;;;;9.80;100.00;101382.50;6299931;28;20052;-76
2024/02/04 13:04:04;;;;;;;;;;;;;;;9.93;100.00;101369.75;6295599;28;20131;-78
2024/02/04 13:07:09;;;;;;;8.75;1.58;;;;;;;10.01;100.00;101380.78;6291742;28;20209;-76
2024/02/04 13:10:14;;;;;;;3.33;1.02;;;;;;;9.88;100.00;101371.69;6293612;28;20052;-77
2024/02/04 13:13:16;;;;;;;5.32;1.45;;;;;;;9.72;100.00;101370.59;6289404;28;20053;-76
2024/02/04 13:16:19;;;;;;;5.53;1.10;;;;;;;9.68;100.00;101366.41;6290812;28;20048;-76
2024/02/04 13:19:21;;;;;;;10.30;1.30;;;;;;;9.66;100.00;101374.31;6299173;28;20071;-76
2024/02/04 13:22:23;;;;;;;9.05;2.95;;;;;;;9.64;100.00;101374.41;6299232;28;20056;-76
2024/02/04 13:25:24;;;;;;;7.68;2.20;;;;;;;9.60;100.00;101371.94;6293804;28;20067;-78
2024/02/04 13:28:26;;;;;;;10.63;2.13;;;;;;;9.72;100.00;101367.97;6296263;28;20116;-78
2024/02/04 13:31:28;;;;;;;12.93;1.90;;;;;;;9.72;100.00;101370.59;6303156;28;20075;-77
2024/02/04 13:34:31;;;;;;;11.38;2.08;;;;;;;9.68;100.00;101364.63;6303111;28;20047;-76
2024/02/04 13:37:32;;;;;;;8.15;1.25;;;;;;;9.73;100.00;101369.69;6299461;28;20048;-77
2024/02/04 13:40:33;;;;;;;6.45;1.55;;;;;;;9.72;100.00;101362.72;6301187;28;20044;-76
2024/02/04 13:43:35;;;;;;;11.73;1.85;;;;;;;9.72;100.00;101381.97;6302788;28;20048;-75
2024/02/04 13:46:36;;;;;;;3.33;1.35;;;;;;;9.64;100.00;101370.91;6303638;28;20037;-76
2024/02/04 13:49:39;;;;;;;8.48;3.33;;;;;;;9.74;100.00;101371.41;6298161;28;20053;-77
2024/02/04 13:52:41;;;;;;;17.08;4.22;;;;;;;9.65;100.00;101360.34;6299502;28;20364;-76
2024/02/04 13:55:43;;;;;;;7.50;2.00;;;;;;;9.66;100.00;101346.31;6295829;28;20041;-76
2024/02/04 13:58:44;;;;;;;6.65;1.15;;;;;;;9.63;100.00;101356.09;6295362;28;20040;-76
2024/02/04 14:01:46;;;;;;;2.20;0.77;;;;;;;9.65;100.00;101341.13;6302626;28;20048;-75
2024/02/04 14:04:48;;;;;;;5.80;0.77;;;;;;;9.58;100.00;101343.16;6297522;23;20037;-77